Главная страница
METAR-TAF:

METAR-TAF

Аэропорты :

Астрахань, Россия

Нариманово

широта: 46-17N, долгота: 048-00-23E, высота над уровнем моря: 0 м

Текущие метеонаблюдения

Эта сводка был подготовлена 34 минут назад, в 06:00 UTC
Ветер 6 Узел от северо-восточный
Температура 24°C
Влажность 54%
Давление 1018 hPa
Видимость 10 км и более
Нет облачности ниже 1500 м, и нет кучево-дождевой облачности

METAR: URWA 210600Z 05003MPS CAVOK 24/14 Q1018 R09/010070 NOSIG RMK QFE765/1020

Время: 09:34 (06:34 UTC)

Прогноз

Эта сводка был подготовлена 1 час и 34 минут назад, в 05:00 UTC
Прогноз действительный с 21-го 06 UTC до 21-го 15 UTC
Ветер 14 Узел от восточный с порывами до 27 Узел
Видимость 10 км и более
Отдельные облака на высоте 3000 фута, Кучево-дождевые.

TAF: URWA 210500Z 2106/2115 10007G14MPS 9999 SCT030CB

Метеонаблюдения и прогнозы для более 4000 аэропортов (сводки METAR и TAF).

Имеющиеся станции представлены на карте желтыми и красными точками.

Чтобы увидеть название станции, наведите на нее мышь.

Затем щелкните, чтобы увидеть метеонаблюдения и метеопрогнозы.

Управление картой: чтобы увеличить масштаб, щелкните зеленые кнопки с черным крестиком; чтобы уменьшить масштаб, щелкните зеленую кнопку с тире; для просмотра соседних карт щелкайте зеленые стрелки.


METAR-TAF: